Airfield :
LOGIN :

Register | Disclaimer

   EN    FR    IT 

 










Legend :    VFR   Marginal VFR   IFR   Intensive IFR   Very Intensive IFR
Visi :
Ceiling :
>= 8 km
>= 3000ft
5 to 8 km
1000 to 3000 ft
1500m to 5 km
500 to 1000 ft
800 to 1500m
200 to 500 ft
< 800m
< 200 ft
Symbols :   Thunderstorms  Fog  Heavy snow  Heavy precipitations  Wind > 20 kt
SIGMETs :     Misc.  Thunderstorms  Icing  Turbulence  Mountain Waves  Volcanic Ashes






- Airport Elevation : 14 ft
- IATA code : BRE


EDDW - Bremen Neuenland

CURRENT METAR :
  • 271920Z AUTO 13009KT 9999 -RA FEW025 06/04 Q1016 NOSIG

EXPIRED METARs :
  • 271850Z AUTO 14008KT 9999 FEW024 07/04 Q1017 NOSIG
  • 271820Z AUTO 11008KT 9999 -RA FEW044 07/04 Q1017 NOSIG
  • 271750Z AUTO 13005KT 9999 FEW026 06/04 Q1017 NOSIG
  • 271720Z AUTO 13006KT 9999 -RA FEW040 06/04 Q1017 NOSIG
  • 271650Z AUTO 17007KT 9999 SCT044 06/04 Q1018 NOSIG

TAF TAF EDDW
Valid from the 27 at 18:00 until the 28 at 18:00 UTC


271700Z 2718/2818 13009KT 9999 FEW020
PROB30
TEMPO 2808/2815 4500 RA BKN010
BECMG 2815/2818 BKN013
PROB30
TEMPO 2816/2818 3500 -RA BR BKN008



MET'MAP, your aeronautical weather chart ! - Copyright ORBIFLY December 2007 - Disclaimer

ORBIFLY MET'MAP TEAM :

Programming & Development : Alexandra Zaïnal
Original concept : Baudouin d'Aumeries
Technical & hardware support : Manuel Goepfert
Assistance : Marc-Olivier Méhu




SOURCES & CREDITS :

   NOAA